createdAt,value
2022-10-05T00:00:02.060Z,1005.72
2022-10-05T00:00:34.201Z,1005.72
2022-10-05T00:01:04.836Z,1005.62
2022-10-05T00:01:35.824Z,1005.72
2022-10-05T00:02:09.065Z,1005.72
2022-10-05T00:02:34.528Z,1005.72
2022-10-05T00:02:56.910Z,1005.72
2022-10-05T00:03:28.785Z,1005.72
2022-10-05T00:04:02.140Z,1005.82
2022-10-05T00:04:33.001Z,1005.82
2022-10-05T00:05:05.773Z,1005.82
2022-10-05T00:05:34.444Z,1005.62
2022-10-05T00:05:52.888Z,1005.62
2022-10-05T00:06:25.745Z,1005.62
2022-10-05T00:06:42.178Z,1005.72
2022-10-05T00:07:12.989Z,1005.72
2022-10-05T00:07:34.793Z,1005.72
2022-10-05T00:08:01.571Z,1005.72
2022-10-05T00:08:33.339Z,1005.72
2022-10-05T00:09:06.010Z,1005.82
2022-10-05T00:09:34.550Z,1005.82
2022-10-05T00:09:52.879Z,1005.82
2022-10-05T00:10:26.056Z,1005.82
2022-10-05T00:10:42.391Z,1005.62
2022-10-05T00:11:12.776Z,1005.62
2022-10-05T00:11:34.549Z,1005.93
2022-10-05T00:12:00.810Z,1005.93
2022-10-05T00:12:33.927Z,1005.93
2022-10-05T00:13:05.021Z,1005.82
2022-10-05T00:13:34.403Z,1005.82
2022-10-05T00:13:53.733Z,1005.82
2022-10-05T00:14:24.759Z,1005.82
2022-10-05T00:14:42.083Z,1005.82
2022-10-05T00:15:13.131Z,1005.82
2022-10-05T00:15:34.619Z,1005.82
2022-10-05T00:16:01.845Z,1005.82
2022-10-05T00:16:32.897Z,1005.82
2022-10-05T00:17:05.001Z,1005.72
2022-10-05T00:17:34.417Z,1005.62
2022-10-05T00:17:52.972Z,1005.62
2022-10-05T00:18:25.519Z,1005.62
2022-10-05T00:18:57.763Z,1005.52
2022-10-05T00:19:29.993Z,1005.52
2022-10-05T00:20:01.354Z,1005.62
2022-10-05T00:20:33.731Z,1005.62
2022-10-05T00:21:04.882Z,1005.62
2022-10-05T00:21:35.545Z,1005.52
2022-10-05T00:21:53.315Z,1005.52
2022-10-05T00:22:24.924Z,1005.52
2022-10-05T00:22:42.694Z,1005.62
2022-10-05T00:23:12.774Z,1005.62
2022-10-05T00:23:34.410Z,1005.62
2022-10-05T00:24:00.993Z,1005.62
2022-10-05T00:24:32.923Z,1005.62
2022-10-05T00:25:05.756Z,1005.62
2022-10-05T00:25:34.470Z,1005.62
2022-10-05T00:25:53.229Z,1005.62
2022-10-05T00:26:24.801Z,1005.62
2022-10-05T00:26:42.038Z,1005.52
2022-10-05T00:27:13.536Z,1005.52
2022-10-05T00:27:34.551Z,1005.62
2022-10-05T00:28:00.960Z,1005.62
2022-10-05T00:28:32.811Z,1005.62
2022-10-05T00:29:05.068Z,1005.62
2022-10-05T00:29:35.069Z,1005.72
2022-10-05T00:29:53.125Z,1005.72
2022-10-05T00:30:25.771Z,1005.72
2022-10-05T00:30:42.439Z,1005.52
2022-10-05T00:31:12.935Z,1005.52
2022-10-05T00:31:34.483Z,1005.72
2022-10-05T00:32:01.025Z,1005.72
2022-10-05T00:32:33.913Z,1005.72
2022-10-05T00:33:04.845Z,1005.62
2022-10-05T00:33:34.578Z,1005.62
2022-10-05T00:33:53.943Z,1005.62
2022-10-05T00:34:24.937Z,1005.62
2022-10-05T00:34:42.075Z,1005.42
2022-10-05T00:35:12.895Z,1005.42
2022-10-05T00:35:34.433Z,1005.52
2022-10-05T00:36:01.874Z,1005.52
2022-10-05T00:36:32.976Z,1005.52
2022-10-05T00:37:05.548Z,1005.32
2022-10-05T00:37:34.668Z,1005.42
2022-10-05T00:37:53.319Z,1005.42
2022-10-05T00:38:24.781Z,1005.42
2022-10-05T00:38:42.070Z,1005.52
2022-10-05T00:39:13.723Z,1005.52
2022-10-05T00:39:34.519Z,1005.62
2022-10-05T00:40:00.954Z,1005.62
2022-10-05T00:40:32.774Z,1005.62
2022-10-05T00:41:04.968Z,1005.82
2022-10-05T00:41:34.549Z,1005.52
2022-10-05T00:41:53.036Z,1005.52
2022-10-05T00:42:25.681Z,1005.52
2022-10-05T00:42:42.364Z,1005.62
2022-10-05T00:43:12.753Z,1005.62
2022-10-05T00:43:34.402Z,1005.72
2022-10-05T00:44:01.576Z,1005.72
2022-10-05T00:44:33.512Z,1005.72
2022-10-05T00:45:05.028Z,1005.52
2022-10-05T00:45:35.724Z,1005.62
2022-10-05T00:45:53.641Z,1005.62
2022-10-05T00:46:24.867Z,1005.62
2022-10-05T00:46:41.953Z,1005.52
2022-10-05T00:47:12.883Z,1005.52
2022-10-05T00:47:34.990Z,1005.52
2022-10-05T00:48:01.942Z,1005.52
2022-10-05T00:48:32.993Z,1005.52
2022-10-05T00:49:05.155Z,1005.52
2022-10-05T00:49:34.439Z,1005.42
2022-10-05T00:49:52.802Z,1005.42
2022-10-05T00:50:25.862Z,1005.42
2022-10-05T00:50:57.916Z,1005.62
2022-10-05T00:51:29.827Z,1005.62
2022-10-05T00:52:01.188Z,1005.52
2022-10-05T00:52:32.855Z,1005.52
2022-10-05T00:53:04.987Z,1005.62
2022-10-05T00:53:34.378Z,1005.62
2022-10-05T00:53:53.653Z,1005.62
2022-10-05T00:54:24.743Z,1005.62
2022-10-05T00:54:41.941Z,1005.42
2022-10-05T00:55:13.194Z,1005.42
2022-10-05T00:55:34.518Z,1005.72
2022-10-05T00:56:01.693Z,1005.72
2022-10-05T00:56:33.409Z,1005.72
2022-10-05T00:57:05.692Z,1005.72
2022-10-05T00:57:34.557Z,1005.62
2022-10-05T00:57:53.130Z,1005.62
2022-10-05T00:58:24.776Z,1005.62
2022-10-05T00:58:41.867Z,1005.62
2022-10-05T00:59:13.743Z,1005.62
2022-10-05T00:59:34.988Z,1005.72
2022-10-05T01:00:01.878Z,1005.72
2022-10-05T01:00:32.938Z,1005.72
2022-10-05T01:01:04.922Z,1005.52
2022-10-05T01:01:34.738Z,1005.62
2022-10-05T01:01:53.965Z,1005.62
2022-10-05T01:02:25.945Z,1005.62
2022-10-05T01:02:42.615Z,1005.62
2022-10-05T01:03:12.883Z,1005.62
2022-10-05T01:03:34.474Z,1005.72
2022-10-05T01:04:00.792Z,1005.72
2022-10-05T01:04:34.030Z,1005.72
2022-10-05T01:05:05.166Z,1005.62
2022-10-05T01:05:34.417Z,1005.62
2022-10-05T01:05:53.869Z,1005.62
2022-10-05T01:06:24.774Z,1005.62
2022-10-05T01:06:42.115Z,1005.82
2022-10-05T01:07:13.549Z,1005.82
2022-10-05T01:07:34.583Z,1005.72
2022-10-05T01:08:00.828Z,1005.72
2022-10-05T01:08:33.621Z,1005.72
2022-10-05T01:09:05.021Z,1005.62
2022-10-05T01:09:35.547Z,1005.93
2022-10-05T01:09:52.748Z,1005.93
2022-10-05T01:10:24.931Z,1005.93
2022-10-05T01:10:41.935Z,1005.42
2022-10-05T01:11:13.703Z,1005.42
2022-10-05T01:11:34.443Z,1005.72
2022-10-05T01:12:00.981Z,1005.72
2022-10-05T01:12:33.619Z,1005.72
2022-10-05T01:13:04.779Z,1005.62
2022-10-05T01:13:35.996Z,1005.82
2022-10-05T01:14:08.254Z,1005.82
2022-10-05T01:14:24.690Z,1005.82
2022-10-05T01:14:42.780Z,1005.62
2022-10-05T01:15:12.912Z,1005.62
2022-10-05T01:15:34.377Z,1005.62
2022-10-05T01:16:00.943Z,1005.62
2022-10-05T01:16:33.040Z,1005.62
2022-10-05T01:17:05.598Z,1005.62
2022-10-05T01:17:34.405Z,1005.62
2022-10-05T01:17:52.760Z,1005.62
2022-10-05T01:18:26.195Z,1005.62
2022-10-05T01:18:42.239Z,1005.72
2022-10-05T01:19:13.017Z,1005.72
2022-10-05T01:19:34.566Z,1005.42
2022-10-05T01:20:00.925Z,1005.42
2022-10-05T01:20:33.683Z,1005.42
2022-10-05T01:21:04.990Z,1005.52
2022-10-05T01:21:35.337Z,1005.42
2022-10-05T01:21:52.882Z,1005.42
2022-10-05T01:22:24.781Z,1005.42
2022-10-05T01:22:41.950Z,1005.42
2022-10-05T01:23:13.728Z,1005.42
2022-10-05T01:23:34.392Z,1005.42
2022-10-05T01:24:00.987Z,1005.42
2022-10-05T01:24:33.780Z,1005.42
2022-10-05T01:25:04.969Z,1005.52
2022-10-05T01:25:34.564Z,1005.52
2022-10-05T01:25:53.944Z,1005.52
2022-10-05T01:26:24.903Z,1005.52
2022-10-05T01:26:42.025Z,1005.52
2022-10-05T01:27:13.303Z,1005.52
2022-10-05T01:27:35.110Z,1005.52
2022-10-05T01:28:02.025Z,1005.52
2022-10-05T01:28:33.368Z,1005.52
2022-10-05T01:29:05.707Z,1005.62
2022-10-05T01:29:34.780Z,1005.42
2022-10-05T01:29:52.839Z,1005.42
2022-10-05T01:30:25.020Z,1005.42
2022-10-05T01:30:42.070Z,1005.32
2022-10-05T01:31:13.879Z,1005.32
2022-10-05T01:31:34.692Z,1005.32
2022-10-05T01:32:00.829Z,1005.32
2022-10-05T01:32:32.802Z,1005.32
2022-10-05T01:33:05.071Z,1005.42
2022-10-05T01:33:34.377Z,1005.42
2022-10-05T01:33:52.785Z,1005.42
2022-10-05T01:34:35.315Z,1005.21
2022-10-05T01:34:56.876Z,1005.21
2022-10-05T01:35:29.041Z,1005.21
2022-10-05T01:36:00.877Z,1005.42
2022-10-05T01:36:33.641Z,1005.42
2022-10-05T01:37:05.215Z,1005.42
2022-10-05T01:37:34.811Z,1005.32
2022-10-05T01:37:53.923Z,1005.32
2022-10-05T01:38:25.169Z,1005.32
2022-10-05T01:38:57.716Z,1005.42
2022-10-05T01:39:28.859Z,1005.42
2022-10-05T01:40:01.762Z,1005.32
2022-10-05T01:40:32.962Z,1005.32
2022-10-05T01:41:05.741Z,1005.42
2022-10-05T01:41:34.507Z,1005.32
2022-10-05T01:41:53.048Z,1005.32
2022-10-05T01:42:34.590Z,1005.11
2022-10-05T01:42:56.889Z,1005.11
2022-10-05T01:43:28.739Z,1005.11
2022-10-05T01:44:01.213Z,1005.32
2022-10-05T01:44:32.955Z,1005.32
2022-10-05T01:45:05.194Z,1005.32
2022-10-05T01:45:34.500Z,1005.52
2022-10-05T01:45:52.948Z,1005.52
2022-10-05T01:46:25.688Z,1005.52
2022-10-05T01:46:42.517Z,1005.32
2022-10-05T01:47:12.878Z,1005.32
2022-10-05T01:47:35.373Z,1005.32
2022-10-05T01:48:01.815Z,1005.32
2022-10-05T01:48:32.768Z,1005.32
2022-10-05T01:49:05.754Z,1005.11
2022-10-05T01:49:34.386Z,1005.11
2022-10-05T01:49:52.749Z,1005.11
2022-10-05T01:50:24.834Z,1005.11
2022-10-05T01:50:41.926Z,1005.42
2022-10-05T01:51:13.786Z,1005.42
2022-10-05T01:51:34.467Z,1005.21
2022-10-05T01:52:01.004Z,1005.21
2022-10-05T01:52:32.753Z,1005.21
2022-10-05T01:53:05.275Z,1005.21
2022-10-05T01:53:34.507Z,1005.21
2022-10-05T01:53:52.886Z,1005.21
2022-10-05T01:54:25.677Z,1005.21
2022-10-05T01:54:42.366Z,1005.32
2022-10-05T01:55:12.843Z,1005.32
2022-10-05T01:55:34.383Z,1005.32
2022-10-05T01:56:01.705Z,1005.32
2022-10-05T01:56:32.900Z,1005.32
2022-10-05T01:57:04.819Z,1005.11
2022-10-05T01:57:34.455Z,1005.21
2022-10-05T01:57:52.848Z,1005.21
2022-10-05T01:58:25.853Z,1005.21
2022-10-05T01:58:58.039Z,1005.11
2022-10-05T01:59:29.561Z,1005.11
2022-10-05T02:00:01.187Z,1005.32
2022-10-05T02:00:32.958Z,1005.32
2022-10-05T02:01:05.048Z,1005.11
2022-10-05T02:01:34.445Z,1005.11
2022-10-05T02:01:53.756Z,1005.11
2022-10-05T02:02:24.912Z,1005.11
2022-10-05T02:02:41.972Z,1005.32
2022-10-05T02:03:12.925Z,1005.32
2022-10-05T02:03:34.513Z,1005.11
2022-10-05T02:04:01.680Z,1005.11
2022-10-05T02:05:00.347Z,1005.11
2022-10-05T02:05:21.853Z,1005.11
2022-10-05T02:05:52.949Z,1005.01
2022-10-05T02:06:25.788Z,1005.01
2022-10-05T02:06:42.480Z,1005.11
2022-10-05T02:07:12.777Z,1005.11
2022-10-05T02:07:34.476Z,1005.11
2022-10-05T02:08:00.901Z,1005.11
2022-10-05T02:08:33.648Z,1005.11
2022-10-05T02:09:04.790Z,1005.01
2022-10-05T02:09:35.137Z,1005.21
2022-10-05T02:10:08.988Z,1005.21
2022-10-05T02:10:34.613Z,1005.21
2022-10-05T02:10:57.780Z,1005.21
2022-10-05T02:11:28.745Z,1005.21
2022-10-05T02:12:01.694Z,1005.11
2022-10-05T02:12:32.986Z,1005.11
2022-10-05T02:13:06.140Z,1005.32
2022-10-05T02:13:34.500Z,1005.11
2022-10-05T02:13:52.758Z,1005.11
2022-10-05T02:14:24.921Z,1005.11
2022-10-05T02:14:42.110Z,1005.11
2022-10-05T02:15:13.663Z,1005.11
2022-10-05T02:15:34.708Z,1005.01
2022-10-05T02:16:00.801Z,1005.01
2022-10-05T02:16:32.896Z,1005.01
2022-10-05T02:17:04.978Z,1005.21
2022-10-05T02:17:34.433Z,1005.11
2022-10-05T02:17:52.787Z,1005.11
2022-10-05T02:18:25.745Z,1005.11
2022-10-05T02:18:42.607Z,1005.32
2022-10-05T02:19:12.965Z,1005.32
2022-10-05T02:19:34.499Z,1005.21
2022-10-05T02:20:00.967Z,1005.21
2022-10-05T02:20:33.639Z,1005.21
2022-10-05T02:21:04.891Z,1004.91
2022-10-05T02:21:35.571Z,1005.01
2022-10-05T02:21:52.958Z,1005.01
2022-10-05T02:22:24.711Z,1005.01
2022-10-05T02:22:41.868Z,1005.11
2022-10-05T02:23:13.797Z,1005.11
2022-10-05T02:23:34.479Z,1005.01
2022-10-05T02:24:00.984Z,1005.01
2022-10-05T02:24:33.686Z,1005.01
2022-10-05T02:25:04.920Z,1005.01
2022-10-05T02:25:35.499Z,1004.91
2022-10-05T02:25:52.969Z,1004.91
2022-10-05T02:26:24.970Z,1004.91
2022-10-05T02:26:42.605Z,1005.01
2022-10-05T02:27:12.742Z,1005.01
2022-10-05T02:27:34.428Z,1005.11
2022-10-05T02:28:01.732Z,1005.11
2022-10-05T02:28:32.993Z,1005.11
2022-10-05T02:29:05.500Z,1005.01
2022-10-05T02:29:34.434Z,1005.01
2022-10-05T02:29:52.737Z,1005.01
2022-10-05T02:30:25.046Z,1005.01
2022-10-05T02:30:42.020Z,1004.91
2022-10-05T02:31:13.587Z,1004.91
2022-10-05T02:31:34.751Z,1005.21
2022-10-05T02:32:00.751Z,1005.21
2022-10-05T02:32:32.753Z,1005.21
2022-10-05T02:33:05.044Z,1005.01
2022-10-05T02:33:34.449Z,1005.11
2022-10-05T02:33:52.911Z,1005.11
2022-10-05T02:34:25.603Z,1005.11
2022-10-05T02:34:42.639Z,1005.11
2022-10-05T02:35:12.905Z,1005.11
2022-10-05T02:35:34.403Z,1004.91
2022-10-05T02:36:01.019Z,1004.91
2022-10-05T02:36:33.608Z,1004.91
2022-10-05T02:37:04.855Z,1004.91
2022-10-05T02:37:34.603Z,1004.91
2022-10-05T02:37:54.037Z,1004.91
2022-10-05T02:38:24.874Z,1004.91
2022-10-05T02:38:41.945Z,1005.11
2022-10-05T02:39:12.817Z,1005.11
2022-10-05T02:39:34.477Z,1004.84
2022-10-05T02:40:01.942Z,1004.84
2022-10-05T02:40:32.915Z,1004.84
2022-10-05T02:41:06.422Z,1005.11
2022-10-05T02:41:34.407Z,1004.91
2022-10-05T02:41:52.705Z,1004.91
2022-10-05T02:42:24.861Z,1004.91
2022-10-05T02:42:42.062Z,1004.91
2022-10-05T02:43:13.668Z,1004.91
2022-10-05T02:43:34.803Z,1004.91
2022-10-05T02:44:00.975Z,1004.91
2022-10-05T02:44:33.621Z,1004.91
2022-10-05T02:45:05.190Z,1005.11
2022-10-05T02:45:36.991Z,1004.84
2022-10-05T02:46:08.793Z,1004.84
2022-10-05T02:46:34.513Z,1004.91
2022-10-05T02:46:58.236Z,1004.91
2022-10-05T02:47:28.872Z,1004.91
2022-10-05T02:48:02.328Z,1004.91
2022-10-05T02:48:32.779Z,1004.91
2022-10-05T02:49:05.783Z,1005.01
2022-10-05T02:49:34.569Z,1004.84
2022-10-05T02:49:52.890Z,1004.84
2022-10-05T02:50:25.753Z,1004.84
2022-10-05T02:50:57.866Z,1004.91
2022-10-05T02:51:28.746Z,1004.91
2022-10-05T02:52:00.973Z,1004.84
2022-10-05T02:52:32.874Z,1004.84
2022-10-05T02:53:05.348Z,1004.84
2022-10-05T02:53:34.468Z,1004.91
2022-10-05T02:53:52.764Z,1004.91
2022-10-05T02:54:25.718Z,1004.91
2022-10-05T02:54:42.425Z,1004.84
2022-10-05T02:55:13.084Z,1004.84
2022-10-05T02:55:34.621Z,1004.64
2022-10-05T02:56:01.728Z,1004.64
2022-10-05T02:56:32.943Z,1004.64
2022-10-05T02:57:05.527Z,1004.91
2022-10-05T02:57:34.459Z,1005.01
2022-10-05T02:57:52.704Z,1005.01
2022-10-05T02:58:24.747Z,1005.01
2022-10-05T02:58:41.886Z,1004.74
2022-10-05T02:59:13.767Z,1004.74
2022-10-05T02:59:34.552Z,1004.64
2022-10-05T03:00:01.365Z,1004.64
2022-10-05T03:00:33.317Z,1004.64
2022-10-05T03:01:04.878Z,1004.64
2022-10-05T03:01:38.440Z,1004.91
2022-10-05T03:02:08.905Z,1004.91
2022-10-05T03:02:34.497Z,1004.74
2022-10-05T03:02:56.791Z,1004.74
2022-10-05T03:03:29.703Z,1004.74
2022-10-05T03:04:00.908Z,1004.91
2022-10-05T03:04:33.890Z,1004.91
2022-10-05T03:05:04.995Z,1004.74
2022-10-05T03:05:35.496Z,1004.64
2022-10-05T03:05:52.978Z,1004.64
2022-10-05T03:06:24.950Z,1004.64
2022-10-05T03:06:56.894Z,1004.74
2022-10-05T03:07:34.583Z,1004.74
2022-10-05T03:08:00.781Z,1004.74
2022-10-05T03:08:32.848Z,1004.74
2022-10-05T03:09:04.964Z,1004.74
2022-10-05T03:09:34.423Z,1004.84
2022-10-05T03:09:52.724Z,1004.84
2022-10-05T03:10:25.827Z,1004.84
2022-10-05T03:10:42.593Z,1004.74
2022-10-05T03:11:12.897Z,1004.74
2022-10-05T03:11:34.549Z,1004.74
2022-10-05T03:12:01.610Z,1004.74
2022-10-05T03:12:32.764Z,1004.74
2022-10-05T03:13:05.681Z,1004.64
2022-10-05T03:13:34.610Z,1004.54
2022-10-05T03:13:52.956Z,1004.54
2022-10-05T03:14:24.743Z,1004.54
2022-10-05T03:14:41.904Z,1004.54
2022-10-05T03:15:14.058Z,1004.54
2022-10-05T03:15:34.471Z,1004.74
2022-10-05T03:16:00.952Z,1004.74
2022-10-05T03:16:33.300Z,1004.74
2022-10-05T03:17:04.768Z,1004.64
2022-10-05T03:17:34.491Z,1004.64
2022-10-05T03:17:53.116Z,1004.64
2022-10-05T03:18:29.860Z,1004.64
2022-10-05T03:18:57.943Z,1004.44
2022-10-05T03:19:28.751Z,1004.44
2022-10-05T03:20:00.890Z,1004.33
2022-10-05T03:20:33.127Z,1004.33
2022-10-05T03:21:04.940Z,1004.54
2022-10-05T03:21:34.442Z,1004.64
2022-10-05T03:21:52.789Z,1004.64
2022-10-05T03:22:25.703Z,1004.64
2022-10-05T03:22:57.947Z,1004.54
2022-10-05T03:23:28.872Z,1004.54
2022-10-05T03:24:00.772Z,1004.44
2022-10-05T03:24:32.786Z,1004.44
2022-10-05T03:25:05.025Z,1004.74
2022-10-05T03:25:34.593Z,1004.54
2022-10-05T03:25:52.990Z,1004.54
2022-10-05T03:26:25.861Z,1004.54
2022-10-05T03:26:42.539Z,1004.54
2022-10-05T03:27:12.802Z,1004.54
2022-10-05T03:27:34.422Z,1004.64
2022-10-05T03:28:01.832Z,1004.64
2022-10-05T03:28:32.921Z,1004.64
2022-10-05T03:29:05.528Z,1004.54
2022-10-05T03:29:34.617Z,1004.64
2022-10-05T03:29:52.802Z,1004.64
2022-10-05T03:30:25.143Z,1004.64
2022-10-05T03:30:42.613Z,1004.64
2022-10-05T03:31:13.656Z,1004.64
2022-10-05T03:31:34.629Z,1004.44
2022-10-05T03:32:00.766Z,1004.44
2022-10-05T03:32:33.150Z,1004.44
2022-10-05T03:33:04.948Z,1004.23
2022-10-05T03:33:34.852Z,1004.33
2022-10-05T03:33:52.754Z,1004.33
2022-10-05T03:34:25.777Z,1004.33
2022-10-05T03:34:42.772Z,1004.44
2022-10-05T03:35:13.199Z,1004.44
2022-10-05T03:35:34.482Z,1004.44
2022-10-05T03:36:00.790Z,1004.44
2022-10-05T03:36:33.563Z,1004.44
2022-10-05T03:37:04.983Z,1004.23
2022-10-05T03:37:37.892Z,1004.33
2022-10-05T03:38:08.887Z,1004.33
2022-10-05T03:38:34.552Z,1004.33
2022-10-05T03:38:56.746Z,1004.33
2022-10-05T03:39:28.794Z,1004.33
2022-10-05T03:40:01.602Z,1004.23
2022-10-05T03:40:32.876Z,1004.23
2022-10-05T03:41:05.965Z,1004.23
2022-10-05T03:41:34.803Z,1004.33
2022-10-05T03:41:52.697Z,1004.33
2022-10-05T03:42:25.116Z,1004.33
2022-10-05T03:42:57.402Z,1004.44
2022-10-05T03:43:28.693Z,1004.44
2022-10-05T03:44:01.494Z,1004.33
2022-10-05T03:44:32.895Z,1004.33
2022-10-05T03:45:05.122Z,1004.33
2022-10-05T03:45:34.454Z,1004.33
2022-10-05T03:45:53.431Z,1004.33
2022-10-05T03:46:25.663Z,1004.33
2022-10-05T03:46:56.843Z,1004.13
2022-10-05T03:47:30.136Z,1004.13
2022-10-05T03:48:01.873Z,1004.33
2022-10-05T03:48:33.598Z,1004.33
2022-10-05T03:49:04.733Z,1004.13
2022-10-05T03:49:35.492Z,1004.13
2022-10-05T03:49:52.906Z,1004.13
2022-10-05T03:50:25.013Z,1004.13
2022-10-05T03:50:42.586Z,1004.23
2022-10-05T03:51:12.888Z,1004.23
2022-10-05T03:51:34.927Z,1004.33
2022-10-05T03:52:01.669Z,1004.33
2022-10-05T03:52:32.895Z,1004.33
2022-10-05T03:53:05.484Z,1004.03
2022-10-05T03:53:34.431Z,1004.44
2022-10-05T03:53:52.735Z,1004.44
2022-10-05T03:54:24.912Z,1004.44
2022-10-05T03:54:41.954Z,1004.33
2022-10-05T03:55:13.609Z,1004.33
2022-10-05T03:55:34.624Z,1004.23
2022-10-05T03:56:03.119Z,1004.23
2022-10-05T03:56:32.760Z,1004.23
2022-10-05T03:57:05.115Z,1004.23
2022-10-05T03:57:34.456Z,1004.13
2022-10-05T03:57:53.091Z,1004.13
2022-10-05T03:58:25.688Z,1004.13
2022-10-05T03:58:42.540Z,1004.33
2022-10-05T03:59:12.877Z,1004.33
2022-10-05T03:59:34.628Z,1004.33
2022-10-05T04:00:01.280Z,1004.33
2022-10-05T04:00:33.903Z,1004.33
2022-10-05T04:01:05.011Z,1004.23
2022-10-05T04:01:35.677Z,1004.13
2022-10-05T04:01:53.044Z,1004.13
2022-10-05T04:02:25.029Z,1004.13
2022-10-05T04:02:42.647Z,1004.23
2022-10-05T04:03:13.741Z,1004.23
2022-10-05T04:03:34.427Z,1004.33
2022-10-05T04:04:00.910Z,1004.33
2022-10-05T04:04:32.915Z,1004.33
2022-10-05T04:05:04.917Z,1004.23
2022-10-05T04:05:34.445Z,1004.23
2022-10-05T04:05:52.813Z,1004.23
2022-10-05T04:06:25.852Z,1004.23
2022-10-05T04:06:42.183Z,1004.23
2022-10-05T04:07:12.904Z,1004.23
2022-10-05T04:07:34.592Z,1004.23
2022-10-05T04:08:01.661Z,1004.23
2022-10-05T04:08:32.811Z,1004.23
2022-10-05T04:09:05.562Z,1004.23
2022-10-05T04:09:34.440Z,1004.13
2022-10-05T04:09:52.786Z,1004.13
2022-10-05T04:10:24.882Z,1004.13
2022-10-05T04:10:41.969Z,1004.13
2022-10-05T04:11:13.477Z,1004.13
2022-10-05T04:11:34.655Z,1004.13
2022-10-05T04:12:00.701Z,1004.13
2022-10-05T04:12:32.868Z,1004.13
2022-10-05T04:13:04.939Z,1004.33
2022-10-05T04:13:34.642Z,1004.13
2022-10-05T04:13:52.732Z,1004.13
2022-10-05T04:14:25.865Z,1004.13
2022-10-05T04:14:42.467Z,1004.13
2022-10-05T04:15:16.515Z,1004.13
2022-10-05T04:15:34.526Z,1004.13
2022-10-05T04:16:00.980Z,1004.13
2022-10-05T04:16:33.608Z,1004.13
2022-10-05T04:17:04.751Z,1004.23
2022-10-05T04:17:35.696Z,1004.03
2022-10-05T04:17:52.870Z,1004.03
2022-10-05T04:18:24.966Z,1004.03
2022-10-05T04:18:41.852Z,1004.23
2022-10-05T04:19:13.798Z,1004.23
2022-10-05T04:19:34.475Z,1004.13
2022-10-05T04:20:01.091Z,1004.13
2022-10-05T04:20:33.636Z,1004.13
2022-10-05T04:21:04.724Z,1004.23
2022-10-05T04:21:35.008Z,1004.23
2022-10-05T04:21:54.069Z,1004.23
2022-10-05T04:22:24.921Z,1004.23
2022-10-05T04:22:42.523Z,1004.23
2022-10-05T04:23:12.787Z,1004.23
2022-10-05T04:23:35.061Z,1004.23
2022-10-05T04:24:01.836Z,1004.23
2022-10-05T04:24:32.870Z,1004.23
2022-10-05T04:25:06.418Z,1004.23
2022-10-05T04:25:34.607Z,1004.13
2022-10-05T04:25:53.212Z,1004.13
2022-10-05T04:26:24.795Z,1004.13
2022-10-05T04:26:41.887Z,1004.13
2022-10-05T04:27:13.543Z,1004.13
2022-10-05T04:27:34.557Z,1004.13
2022-10-05T04:28:00.852Z,1004.13
2022-10-05T04:28:32.906Z,1004.13
2022-10-05T04:29:04.850Z,1003.93
2022-10-05T04:29:34.894Z,1004.23
2022-10-05T04:29:52.907Z,1004.23
2022-10-05T04:30:25.786Z,1004.23
2022-10-05T04:30:42.607Z,1004.03
2022-10-05T04:31:12.986Z,1004.03
2022-10-05T04:31:34.525Z,1004.03
2022-10-05T04:32:01.901Z,1004.03
2022-10-05T04:32:37.891Z,1004.03
2022-10-05T04:33:04.727Z,1004.33
2022-10-05T04:33:34.535Z,1004.23
2022-10-05T04:33:52.759Z,1004.23
2022-10-05T04:34:25.456Z,1004.23
2022-10-05T04:34:56.916Z,1004.03
2022-10-05T04:35:28.919Z,1004.03
2022-10-05T04:36:01.011Z,1004.23
2022-10-05T04:36:32.908Z,1004.23
2022-10-05T04:37:04.850Z,1004.03
2022-10-05T04:37:34.519Z,1004.03
2022-10-05T04:37:53.750Z,1004.03
2022-10-05T04:38:24.724Z,1004.03
2022-10-05T04:38:41.936Z,1004.13
2022-10-05T04:39:12.885Z,1004.13
2022-10-05T04:39:34.565Z,1004.13
2022-10-05T04:40:01.605Z,1004.13
2022-10-05T04:40:32.704Z,1004.13
2022-10-05T04:41:05.631Z,1004.13
2022-10-05T04:41:34.799Z,1004.03
2022-10-05T04:42:09.616Z,1004.03
2022-10-05T04:42:34.466Z,1004.03
2022-10-05T04:42:56.724Z,1004.03
2022-10-05T04:43:28.802Z,1004.03
2022-10-05T04:44:01.512Z,1004.03
2022-10-05T04:44:32.699Z,1004.03
2022-10-05T04:45:05.466Z,1004.23
2022-10-05T04:45:34.567Z,1004.13
2022-10-05T04:45:52.995Z,1004.13
2022-10-05T04:46:25.642Z,1004.13
2022-10-05T04:46:42.564Z,1004.13
2022-10-05T04:47:12.806Z,1004.13
2022-10-05T04:47:34.927Z,1004.23
2022-10-05T04:48:01.685Z,1004.23
2022-10-05T04:48:33.881Z,1004.23
2022-10-05T04:49:05.402Z,1004.23
2022-10-05T04:49:35.308Z,1004.33
2022-10-05T04:49:52.970Z,1004.33
2022-10-05T04:50:25.009Z,1004.33
2022-10-05T04:50:42.012Z,1004.44
2022-10-05T04:51:12.770Z,1004.44
2022-10-05T04:51:34.637Z,1004.33
2022-10-05T04:52:01.679Z,1004.33
2022-10-05T04:52:33.220Z,1004.33
2022-10-05T04:53:05.491Z,1004.33
2022-10-05T04:53:34.454Z,1004.13
2022-10-05T04:53:52.697Z,1004.13
2022-10-05T04:54:24.734Z,1004.13
2022-10-05T04:54:41.819Z,1004.23
2022-10-05T04:55:13.839Z,1004.23
2022-10-05T04:55:34.447Z,1004.23
2022-10-05T04:56:00.704Z,1004.23
2022-10-05T04:56:33.613Z,1004.23
2022-10-05T04:57:04.750Z,1004.23
2022-10-05T04:57:35.696Z,1004.23
2022-10-05T04:58:07.940Z,1004.23
2022-10-05T04:58:24.933Z,1004.23
2022-10-05T04:58:43.719Z,1004.33
2022-10-05T04:59:12.703Z,1004.33
2022-10-05T04:59:34.861Z,1004.44
2022-10-05T05:00:01.857Z,1004.44
2022-10-05T05:00:32.778Z,1004.44
2022-10-05T05:01:04.894Z,1004.13
2022-10-05T05:01:34.545Z,1004.33
2022-10-05T05:01:52.726Z,1004.33
2022-10-05T05:02:25.525Z,1004.33
2022-10-05T05:02:42.436Z,1004.03
2022-10-05T05:03:13.351Z,1004.03
2022-10-05T05:03:34.845Z,1004.33
2022-10-05T05:04:02.202Z,1004.33
2022-10-05T05:04:32.899Z,1004.33
2022-10-05T05:05:05.702Z,1004.13
2022-10-05T05:05:34.915Z,1004.33
2022-10-05T05:06:15.888Z,1004.33
2022-10-05T05:06:24.768Z,1004.33
2022-10-05T05:06:41.929Z,1004.23
2022-10-05T05:07:13.381Z,1004.23
2022-10-05T05:07:34.462Z,1004.33
2022-10-05T05:08:00.665Z,1004.33
2022-10-05T05:08:34.438Z,1004.33
2022-10-05T05:09:04.846Z,1004.13
2022-10-05T05:09:35.813Z,1004.13
2022-10-05T05:10:09.406Z,1004.13
2022-10-05T05:10:35.114Z,1004.44
2022-10-05T05:10:57.977Z,1004.44
2022-10-05T05:11:29.001Z,1004.44
2022-10-05T05:12:01.109Z,1004.13
2022-10-05T05:12:32.687Z,1004.13
2022-10-05T05:13:04.741Z,1004.23
2022-10-05T05:13:34.579Z,1004.23
2022-10-05T05:13:52.841Z,1004.23
2022-10-05T05:14:26.057Z,1004.23
2022-10-05T05:14:43.004Z,1004.23
2022-10-05T05:15:12.956Z,1004.23
2022-10-05T05:15:34.658Z,1004.23
2022-10-05T05:16:02.198Z,1004.23
2022-10-05T05:16:32.972Z,1004.23
2022-10-05T05:17:07.609Z,1004.13
2022-10-05T05:17:34.991Z,1004.13
2022-10-05T05:17:53.150Z,1004.13
2022-10-05T05:18:25.890Z,1004.13
2022-10-05T05:18:42.462Z,1004.23
2022-10-05T05:19:13.201Z,1004.23
2022-10-05T05:19:34.589Z,1004.13
2022-10-05T05:20:01.881Z,1004.13
2022-10-05T05:20:33.534Z,1004.13
2022-10-05T05:21:04.967Z,1004.13
2022-10-05T05:21:35.517Z,1004.13
2022-10-05T05:22:09.117Z,1004.13
2022-10-05T05:22:34.677Z,1004.13
2022-10-05T05:22:57.557Z,1004.13
2022-10-05T05:23:28.876Z,1004.13
2022-10-05T05:24:02.100Z,1004.03
2022-10-05T05:24:32.950Z,1004.03
2022-10-05T05:25:06.146Z,1004.23
2022-10-05T05:25:34.889Z,1004.13
2022-10-05T05:25:52.944Z,1004.13
2022-10-05T05:26:24.744Z,1004.13
2022-10-05T05:26:42.682Z,1004.13
2022-10-05T05:27:13.726Z,1004.13
2022-10-05T05:27:34.437Z,1004.23
2022-10-05T05:28:00.964Z,1004.23
2022-10-05T05:28:32.779Z,1004.23
2022-10-05T05:29:04.754Z,1004.23
2022-10-05T05:29:34.947Z,1004.33
2022-10-05T05:29:53.037Z,1004.33
2022-10-05T05:30:26.316Z,1004.33
2022-10-05T05:30:57.098Z,1004.13
2022-10-05T05:31:28.803Z,1004.13
2022-10-05T05:32:00.972Z,1004.13
2022-10-05T05:32:32.990Z,1004.13